Norway, MI (49870)

03:59 AM CST on Φεβρουάριος 28, 2017 (GMT -0600)
Downtown | | Change Station

Elev 942 ft 45.79 °N, 87.91 °W | Updated 7 seconds ago

Νεφοσκεπής
Νεφοσκεπής
31.1 ° F
Feels Like 31 ° F
N
0.0
Ανεμος Μεταβλητός Ανεμος from ΝΑ
Gusts 0.0 mph

Σήμερα
High -- | Low -- ° F
--% Chance of Precip.
Yesterday
High -- | Low -- ° F
Precip. -- in
Ατμοσφαιρική Πίεση 29.90 in
Ορατότητα 5.0 Μίλια
Σύννεφα Αίθριος
Δείκτης Ψυχρότητας 31 ° F
Σημείο Δρόσου 28 ° F
Υγρασία 88%
Rainfall 0.00 in
Snow Depth Not available.
6:31 AM 5:37 PM
Μηνίσκος, 4% visible
METAR KIMT 280954Z AUTO 00000KT 5SM BR CLR M02/M04 A2985 RMK AO2 SLP123 T10171039
Ατμοσφαιρική Πίεση 29.90 in
Ορατότητα 5.0 Μίλια
Σύννεφα Αίθριος
Δείκτης Ψυχρότητας 31 ° F
Σημείο Δρόσου 28 ° F
Υγρασία 88%
Rainfall 0.00 in
Snow Depth Not available.
6:31 AM 5:37 PM
Μηνίσκος, 4% visible
METAR KIMT 280954Z AUTO 00000KT 5SM BR CLR M02/M04 A2985 RMK AO2 SLP123 T10171039

Get Your Daily Forecast Email!

Thanks for signing up!

Be on the lookout for a verification email in your inbox.

You'll start receiving the daily forecast at 8 AM.

×

10-Day Weather Forecast

Almanac

Αστρονομία

Feb. 28, 2017 Rise Set
Actual Time
Civil Twilight
Nautical Twilight
Astronomical Twilight
Moon
Length Of Visible Light
Διάρκεια ημέρας
Tomorrow will be .
, % of the Moon is Illuminated

Today's Extremes

State Highs State Lows

Community

WunderPhotos

Upload Photos

1,962,540 photos uploaded!

WunderBlog® & News

Nearby

Air Quality

  Air Quality AQ Index Pollutant
Not available.

Snow Depth

Station Depth Elevation

Earthquake Activity

City Distance Mag. Time & Date
Minimum magnitude displayed is 2.5.

Coastal Water Temperatures

Τοποθεσία Θερμοκρασία

Stations

Nearby Weather Stations

Station Location Temp Δείκτης Ψυχρότητας Σημείο Δρόσου Υγρασία Ανεμος Precip. Elev Ενημερώθηκε Type
                   

Watches & Warnings

There are currently no watches in effect.